Time;durP1;ratioP1;P1;durP2;ratioP2;P2;SDS_P1;SDS_P2;PMS_P1;PMS_P2;Temp;Humidity;BMP_temperature;BMP_pressure;BME280_temperature;BME280_humidity;BME280_pressure;Samples;Min_cycle;Max_cycle;Signal;HPM_P1;HPM_P2
2022/05/04 00:09:12;;;;;;;2.17;1.90;;;;;;;23.50;40.38;100320.53;20415448;28;101400;-78
2022/05/04 00:19:14;;;;;;;3.00;2.13;;;;;;;23.49;40.30;100329.44;20435139;28;100380;-78
2022/05/04 00:29:15;;;;;;;3.05;2.33;;;;;;;23.47;40.62;100326.94;20414305;28;100700;-79
2022/05/04 00:39:15;;;;;;;2.40;2.20;;;;;;;23.46;40.46;100327.91;20432457;28;98075;-79
2022/05/04 00:49:16;;;;;;;2.38;2.03;;;;;;;23.40;40.87;100319.66;20432514;28;100980;-79
2022/05/04 00:59:16;;;;;;;2.10;1.90;;;;;;;23.40;40.83;100343.44;20416056;28;98380;-78
2022/05/04 01:09:18;;;;;;;6.50;2.40;;;;;;;23.34;40.96;100343.00;20426119;28;98501;-78
2022/05/04 01:19:19;;;;;;;2.30;2.10;;;;;;;23.34;41.13;100345.66;20423193;28;97638;-78
2022/05/04 01:29:19;;;;;;;2.70;2.38;;;;;;;23.33;41.29;100343.97;20419727;28;97645;-78
2022/05/04 01:39:20;;;;;;;3.08;2.42;;;;;;;23.35;41.12;100335.91;20416233;28;98488;-78
2022/05/04 01:49:20;;;;;;;2.30;2.07;;;;;;;23.33;41.32;100319.38;20408343;28;100335;-78
2022/05/04 01:59:21;;;;;;;2.78;2.20;;;;;;;23.30;41.22;100333.69;20417230;28;99814;-78
2022/05/04 02:09:22;;;;;;;2.42;2.22;;;;;;;23.30;41.41;100325.78;20426452;28;99034;-78
2022/05/04 02:19:22;;;;;;;3.42;2.08;;;;;;;23.27;41.34;100322.56;20411395;28;101928;-77
2022/05/04 02:29:22;;;;;;;3.17;1.95;;;;;;;23.27;41.30;100322.56;20418953;28;97701;-78
2022/05/04 02:39:23;;;;;;;2.50;1.92;;;;;;;23.26;41.43;100326.16;20413717;28;100173;-78
2022/05/04 02:49:23;;;;;;;3.80;2.20;;;;;;;23.26;41.59;100334.09;20430215;28;97513;-78
2022/05/04 02:59:24;;;;;;;2.60;2.20;;;;;;;23.24;41.47;100344.78;20425313;28;97212;-78
2022/05/04 03:09:24;;;;;;;2.08;1.83;;;;;;;23.24;41.63;100339.50;20419661;28;98022;-78
2022/05/04 03:19:25;;;;;;;2.40;2.20;;;;;;;23.20;41.49;100345.19;20422986;28;97729;-78
2022/05/04 03:29:26;;;;;;;2.83;2.45;;;;;;;23.20;41.63;100347.84;20432885;28;101076;-78
2022/05/04 03:39:26;;;;;;;2.30;2.10;;;;;;;23.16;41.68;100365.72;20420152;28;98352;-78
2022/05/04 03:49:27;;;;;;;2.55;2.20;;;;;;;23.20;41.50;100363.69;20400029;28;97741;-78
2022/05/04 03:59:27;;;;;;;3.05;2.30;;;;;;;23.27;41.29;100370.94;20403162;28;97970;-78
2022/05/04 04:09:28;;;;;;;3.10;2.40;;;;;;;23.29;41.42;100379.56;20444837;28;99537;-81
2022/05/04 04:19:28;;;;;;;6.35;2.03;;;;;;;23.33;41.88;100386.25;20432274;28;99424;-76
2022/05/04 04:29:29;;;;;;;16.05;2.65;;;;;;;23.37;42.26;100386.00;20420545;28;98579;-75
2022/05/04 04:39:29;;;;;;;14.57;3.33;;;;;;;23.41;42.48;100387.41;20455559;28;97190;-76
2022/05/04 04:49:30;;;;;;;14.35;4.07;;;;;;;23.36;43.15;100397.53;20442346;28;100690;-75
2022/05/04 04:59:31;;;;;;;19.50;5.80;;;;;;;23.08;41.93;100395.41;20430146;28;97365;-75
2022/05/04 05:09:31;;;;;;;13.10;4.95;;;;;;;23.19;41.62;100402.44;20414779;28;100736;-75
2022/05/04 05:19:33;;;;;;;14.68;4.85;;;;;;;23.21;42.80;100404.97;20442042;28;97498;-75
2022/05/04 05:29:33;;;;;;;11.20;4.47;;;;;;;23.24;42.50;100418.78;20435528;28;100334;-76
2022/05/04 05:39:34;;;;;;;11.43;4.20;;;;;;;23.27;42.19;100422.94;20423343;28;99532;-76
2022/05/04 05:49:35;;;;;;;9.43;4.07;;;;;;;23.27;42.17;100429.06;20431670;28;98807;-76
2022/05/04 05:59:35;;;;;;;8.45;3.75;;;;;;;23.31;42.49;100437.56;20410553;28;97074;-75
2022/05/04 06:09:36;;;;;;;8.95;3.22;;;;;;;23.33;42.13;100433.81;20426842;28;97792;-75
2022/05/04 06:19:36;;;;;;;8.45;3.03;;;;;;;23.37;42.21;100442.31;20425140;28;97876;-75
2022/05/04 06:39:55;;;;;;;9.10;3.30;;;;;;;23.40;43.28;100457.91;20419806;28;97748;-77
2022/05/04 06:49:56;;;;;;;6.72;3.60;;;;;;;23.41;43.40;100446.38;20420120;28;97992;-77
2022/05/04 06:59:59;;;;;;;8.93;3.60;;;;;;;23.44;43.56;100453.22;20442104;28;99672;-77
2022/05/04 07:10:00;;;;;;;7.00;3.25;;;;;;;23.43;43.49;100444.41;20442678;28;101854;-77
2022/05/04 07:20:00;;;;;;;7.32;3.10;;;;;;;23.44;43.60;100453.22;20433866;28;97167;-77
2022/05/04 07:30:01;;;;;;;4.00;2.88;;;;;;;23.47;43.54;100456.41;20458996;28;97440;-77
2022/05/04 07:50:21;;;;;;;3.60;2.88;;;;;;;23.50;43.57;100448.22;20431825;28;98143;-76
2022/05/04 08:10:41;;;;;;;5.60;3.13;;;;;;;23.56;43.68;100460.06;20416367;28;99750;-77
2022/05/04 08:20:42;;;;;;;4.45;3.10;;;;;;;23.54;44.10;100455.88;20417154;28;97823;-76
2022/05/04 08:30:44;;;;;;;13.02;3.47;;;;;;;23.58;43.65;100458.13;20419321;28;98414;-77
2022/05/04 08:40:45;;;;;;;11.23;3.80;;;;;;;23.59;43.70;100465.06;20412957;28;98613;-77
2022/05/04 08:50:46;;;;;;;6.60;3.25;;;;;;;23.61;44.18;100468.44;20442666;28;100265;-77
2022/05/04 09:00:46;;;;;;;6.72;3.17;;;;;;;23.62;44.04;100464.81;20458424;28;97473;-77
2022/05/04 09:10:46;;;;;;;6.22;3.45;;;;;;;23.66;43.94;100463.56;20453890;28;97610;-77
2022/05/04 09:20:48;;;;;;;6.95;3.50;;;;;;;23.70;43.74;100463.31;20441999;28;97792;-77
2022/05/04 09:30:50;;;;;;;7.53;3.60;;;;;;;23.73;43.74;100463.91;20446645;28;97749;-78
2022/05/04 09:51:10;;;;;;;9.70;3.50;;;;;;;23.74;40.84;100454.13;20442144;28;100414;-75
2022/05/04 10:01:11;;;;;;;6.45;3.80;;;;;;;23.75;42.41;100442.59;20450358;28;97245;-76
2022/05/04 10:11:14;;;;;;;7.47;3.35;;;;;;;23.67;40.47;100424.78;20420387;28;100156;-74
2022/05/04 10:21:17;;;;;;;8.38;3.20;;;;;;;23.74;41.92;100422.41;20454732;28;98938;-72
2022/05/04 10:31:17;;;;;;;4.07;2.85;;;;;;;23.71;42.11;100414.78;20442992;28;101282;-73
2022/05/04 10:41:36;;;;;;;4.75;3.00;;;;;;;23.82;42.04;100401.44;20451572;28;97591;-73
2022/05/04 10:51:43;;;;;;;11.32;2.95;;;;;;;23.94;41.67;100391.59;20449405;28;97523;-73
2022/05/04 11:01:45;;;;;;;6.15;2.80;;;;;;;24.01;41.23;100387.44;20444909;28;97559;-73
2022/05/04 11:11:48;;;;;;;3.88;2.80;;;;;;;24.06;41.25;100387.00;20448391;28;97212;-72
2022/05/04 11:21:49;;;;;;;5.18;2.67;;;;;;;24.05;41.15;100382.72;20455713;28;97256;-74
2022/05/04 11:31:54;;;;;;;5.83;2.60;;;;;;;24.06;41.43;100390.50;20447690;28;99256;-73
2022/05/04 11:41:59;;;;;;;8.75;2.80;;;;;;;24.07;41.62;100393.97;20434939;28;97222;-72
2022/05/04 11:52:00;;;;;;;5.22;2.60;;;;;;;24.04;40.59;100403.03;20453051;28;97973;-73
2022/05/04 12:02:01;;;;;;;3.33;2.57;;;;;;;24.09;40.12;100399.97;20429603;28;97789;-72
2022/05/04 12:12:02;;;;;;;6.93;3.63;;;;;;;24.22;41.42;100395.25;20440032;28;99989;-72
2022/05/04 12:22:07;;;;;;;10.63;4.27;;;;;;;24.41;43.28;100393.56;20423093;28;97880;-72
2022/05/04 12:42:30;;;;;;;12.60;3.58;;;;;;;24.51;42.19;100377.69;20393764;28;99508;-73
2022/05/04 12:52:30;;;;;;;5.33;3.17;;;;;;;24.58;42.21;100366.41;20361507;28;97968;-73
2022/05/04 13:02:31;;;;;;;6.13;3.10;;;;;;;24.66;41.64;100355.13;20339175;28;97018;-73
2022/05/04 13:12:32;;;;;;;4.23;2.50;;;;;;;24.74;41.28;100339.38;20335930;28;100327;-74
2022/05/04 13:22:32;;;;;;;4.97;2.83;;;;;;;24.81;41.45;100344.09;20321568;28;97876;-75
2022/05/04 13:32:33;;;;;;;7.13;2.60;;;;;;;24.82;41.56;100343.94;20342502;28;97223;-74
2022/05/04 13:42:33;;;;;;;9.17;2.90;;;;;;;24.78;38.88;100350.50;20414549;28;98486;-75
2022/05/04 14:02:54;;;;;;;6.25;2.45;;;;;;;24.70;37.92;100343.25;20405117;28;97089;-74
2022/05/04 14:12:55;;;;;;;5.63;2.60;;;;;;;24.74;38.22;100334.06;20421499;28;97276;-73
2022/05/04 14:22:56;;;;;;;3.83;1.95;;;;;;;24.75;38.21;100333.06;20416553;28;99569;-74
2022/05/04 14:32:57;;;;;;;2.73;1.90;;;;;;;24.77;36.02;100346.19;20409868;28;99438;-74
2022/05/04 14:42:59;;;;;;;3.00;2.00;;;;;;;24.76;36.89;100333.91;20424592;28;100620;-73
2022/05/04 14:52:59;;;;;;;2.25;1.85;;;;;;;24.80;36.68;100337.13;20411417;28;99966;-74
2022/05/04 15:13:19;;;;;;;2.65;1.75;;;;;;;24.94;36.41;100334.81;20409174;28;100119;-73
2022/05/04 15:23:20;;;;;;;3.70;2.10;;;;;;;24.96;36.15;100333.84;20438345;28;100154;-73
2022/05/04 15:33:20;;;;;;;2.80;2.05;;;;;;;24.93;35.65;100333.16;20426447;28;98034;-73
2022/05/04 15:43:21;;;;;;;1.90;1.80;;;;;;;24.85;36.67;100341.00;20415091;28;101709;-74
2022/05/04 15:53:21;;;;;;;11.23;2.22;;;;;;;24.90;34.97;100337.91;20409094;28;97895;-75
2022/05/04 16:13:41;;;;;;;5.03;2.15;;;;;;;24.73;34.69;100332.41;20407805;28;99435;-73
2022/05/04 16:23:41;;;;;;;3.97;1.88;;;;;;;24.83;34.02;100329.72;20398147;28;101729;-75
2022/05/04 16:33:43;;;;;;;7.03;3.27;;;;;;;24.83;34.85;100332.38;20300836;28;99043;-73
2022/05/04 16:43:43;;;;;;;9.93;3.50;;;;;;;25.07;40.07;100344.25;20320474;28;97836;-73
2022/05/04 16:53:44;;;;;;;21.95;3.80;;;;;;;25.18;39.03;100349.38;20328685;28;97868;-73
2022/05/04 17:03:46;;;;;;;18.13;3.40;;;;;;;25.21;37.89;100369.47;20322047;28;99363;-73
2022/05/04 17:13:47;;;;;;;13.50;3.75;;;;;;;25.22;38.01;100373.78;20318333;28;99051;-74
2022/05/04 17:23:48;;;;;;;13.23;4.20;;;;;;;25.14;36.10;100385.09;20325033;28;98169;-73
2022/05/04 17:44:08;;;;;;;5.22;3.35;;;;;;;25.00;34.96;100390.84;20309448;28;100988;-74
2022/05/04 17:54:08;;;;;;;5.57;3.87;;;;;;;24.94;34.74;100387.81;20335586;28;100157;-73
2022/05/04 18:04:09;;;;;;;6.03;3.17;;;;;;;24.79;35.02;100386.56;20347244;28;100298;-74
2022/05/04 18:14:10;;;;;;;3.28;2.53;;;;;;;24.70;35.91;100393.56;20349199;28;97675;-73
2022/05/04 18:24:10;;;;;;;5.18;2.60;;;;;;;24.65;35.96;100408.19;20367876;28;101366;-74
2022/05/04 18:34:11;;;;;;;4.68;3.00;;;;;;;24.54;35.67;100402.06;20335549;28;101796;-73
2022/05/04 18:44:12;;;;;;;5.17;2.77;;;;;;;24.58;37.05;100415.84;20333767;28;98534;-73
2022/05/04 18:54:12;;;;;;;6.38;2.83;;;;;;;24.63;37.07;100408.31;20399900;28;101721;-75
2022/05/04 19:04:13;;;;;;;5.97;2.20;;;;;;;24.74;37.23;100424.09;20337940;28;97964;-75
2022/05/04 19:14:13;;;;;;;8.68;2.70;;;;;;;24.73;38.44;100430.38;20348264;28;97195;-75
2022/05/04 19:24:14;;;;;;;11.20;2.85;;;;;;;24.68;39.80;100431.75;20362305;28;101452;-76
2022/05/04 19:34:15;;;;;;;6.50;3.08;;;;;;;24.73;38.83;100433.00;20364814;28;97478;-75
2022/05/04 19:44:16;;;;;;;5.67;2.37;;;;;;;24.68;39.21;100445.84;20294608;28;97420;-74
2022/05/04 19:54:17;;;;;;;7.53;3.00;;;;;;;24.60;39.59;100454.44;20346103;28;97553;-73
2022/05/04 20:04:17;;;;;;;6.23;3.20;;;;;;;24.53;39.33;100466.56;20345117;28;97374;-74
2022/05/04 20:14:18;;;;;;;4.75;2.63;;;;;;;24.51;39.75;100480.91;20354251;28;97073;-74
2022/05/04 20:24:18;;;;;;;4.57;2.83;;;;;;;24.46;39.85;100508.66;20363150;28;98855;-74
2022/05/04 20:34:19;;;;;;;3.65;2.75;;;;;;;24.45;40.04;100525.50;20335088;28;98224;-74
2022/05/04 20:44:19;;;;;;;6.35;2.97;;;;;;;24.40;40.09;100529.50;20369707;28;97109;-74
2022/05/04 20:54:21;;;;;;;5.85;3.15;;;;;;;24.37;40.51;100546.50;20367495;28;98214;-74
2022/05/04 21:04:21;;;;;;;5.50;2.53;;;;;;;24.33;40.47;100550.41;20357606;28;97662;-74
2022/05/04 21:14:22;;;;;;;3.47;2.73;;;;;;;24.31;40.52;100562.94;20343916;28;97682;-75
2022/05/04 21:24:23;;;;;;;7.30;2.75;;;;;;;24.33;40.67;100554.84;20351739;28;99022;-74
2022/05/04 21:34:23;;;;;;;3.90;2.80;;;;;;;24.30;40.69;100569.19;20350008;28;100976;-74
2022/05/04 21:44:24;;;;;;;3.63;2.28;;;;;;;24.28;41.24;100574.63;20369613;28;96860;-74
2022/05/04 21:54:25;;;;;;;2.70;2.50;;;;;;;24.24;41.14;100580.31;20357218;28;100600;-74
2022/05/04 22:04:25;;;;;;;2.72;2.33;;;;;;;24.25;41.14;100582.81;20351558;28;99193;-74
2022/05/04 22:14:26;;;;;;;3.92;2.63;;;;;;;24.22;41.22;100582.28;20361097;28;97354;-73
2022/05/04 22:24:26;;;;;;;4.57;2.70;;;;;;;24.17;41.37;100569.44;20365161;28;98262;-74
2022/05/04 22:34:27;;;;;;;4.70;2.60;;;;;;;24.18;41.24;100576.41;20411661;28;98617;-75
2022/05/04 22:44:28;;;;;;;3.72;2.35;;;;;;;24.13;41.25;100579.47;20436529;28;97626;-74
2022/05/04 22:54:32;;;;;;;3.63;2.50;;;;;;;24.11;41.20;100570.81;20443756;28;102214;-75
2022/05/04 23:04:32;;;;;;;2.90;2.60;;;;;;;24.10;41.40;100570.94;20434663;28;97068;-75
2022/05/04 23:14:33;;;;;;;4.20;2.70;;;;;;;24.08;41.47;100562.31;20438707;28;97182;-76
2022/05/04 23:24:33;;;;;;;4.18;2.30;;;;;;;24.04;41.11;100561.72;20437369;28;97342;-76
2022/05/04 23:34:34;;;;;;;5.60;2.60;;;;;;;24.04;41.29;100564.38;20437596;28;96966;-76
2022/05/04 23:44:35;;;;;;;3.05;2.30;;;;;;;24.02;41.48;100566.31;20460033;28;99292;-76
2022/05/04 23:54:37;;;;;;;4.45;2.40;;;;;;;24.00;41.56;100575.34;20449681;28;98567;-76
